sensor_id;sensor_type;location;lat;lon;timestamp;P1;durP1;ratioP1;P2;durP2;ratioP2
14191;SDS011;7177;48.572;7.838;2023-06-26T00:01:57;9.53;;;7.47;;
14191;SDS011;7177;48.572;7.838;2023-06-26T00:04:22;9.20;;;7.33;;
14191;SDS011;7177;48.572;7.838;2023-06-26T00:06:48;9.77;;;7.20;;
14191;SDS011;7177;48.572;7.838;2023-06-26T00:09:13;8.43;;;6.67;;
14191;SDS011;7177;48.572;7.838;2023-06-26T00:11:39;8.20;;;7.30;;
14191;SDS011;7177;48.572;7.838;2023-06-26T00:14:04;11.47;;;7.20;;
14191;SDS011;7177;48.572;7.838;2023-06-26T00:16:30;9.07;;;7.17;;
14191;SDS011;7177;48.572;7.838;2023-06-26T00:18:56;9.53;;;7.60;;
14191;SDS011;7177;48.572;7.838;2023-06-26T00:21:21;10.73;;;7.40;;
14191;SDS011;7177;48.572;7.838;2023-06-26T00:23:47;9.13;;;7.93;;
14191;SDS011;7177;48.572;7.838;2023-06-26T00:26:12;9.50;;;7.13;;
14191;SDS011;7177;48.572;7.838;2023-06-26T00:28:38;11.30;;;7.30;;
14191;SDS011;7177;48.572;7.838;2023-06-26T00:31:03;8.30;;;7.13;;
14191;SDS011;7177;48.572;7.838;2023-06-26T00:33:29;8.60;;;7.20;;
14191;SDS011;7177;48.572;7.838;2023-06-26T00:35:55;11.27;;;8.43;;
14191;SDS011;7177;48.572;7.838;2023-06-26T00:38:20;12.37;;;7.30;;
14191;SDS011;7177;48.572;7.838;2023-06-26T00:40:46;10.77;;;7.87;;
14191;SDS011;7177;48.572;7.838;2023-06-26T00:43:11;13.60;;;7.90;;
14191;SDS011;7177;48.572;7.838;2023-06-26T00:45:37;8.07;;;7.17;;
14191;SDS011;7177;48.572;7.838;2023-06-26T00:48:03;9.67;;;7.43;;
14191;SDS011;7177;48.572;7.838;2023-06-26T00:50:29;9.13;;;7.33;;
14191;SDS011;7177;48.572;7.838;2023-06-26T00:52:54;8.80;;;7.90;;
14191;SDS011;7177;48.572;7.838;2023-06-26T00:55:25;11.70;;;8.03;;
14191;SDS011;7177;48.572;7.838;2023-06-26T00:57:51;9.87;;;7.77;;
14191;SDS011;7177;48.572;7.838;2023-06-26T01:00:16;12.10;;;8.30;;
14191;SDS011;7177;48.572;7.838;2023-06-26T01:02:42;10.90;;;8.10;;
14191;SDS011;7177;48.572;7.838;2023-06-26T01:05:08;10.97;;;7.90;;
14191;SDS011;7177;48.572;7.838;2023-06-26T01:07:37;11.93;;;7.67;;
14191;SDS011;7177;48.572;7.838;2023-06-26T01:10:04;9.23;;;8.13;;
14191;SDS011;7177;48.572;7.838;2023-06-26T01:12:31;11.57;;;8.50;;
14191;SDS011;7177;48.572;7.838;2023-06-26T01:14:58;12.53;;;8.20;;
14191;SDS011;7177;48.572;7.838;2023-06-26T01:17:24;9.93;;;7.70;;
14191;SDS011;7177;48.572;7.838;2023-06-26T01:19:52;9.57;;;7.43;;
14191;SDS011;7177;48.572;7.838;2023-06-26T01:22:31;9.40;;;7.33;;
14191;SDS011;7177;48.572;7.838;2023-06-26T01:28:06;10.53;;;8.07;;
14191;SDS011;7177;48.572;7.838;2023-06-26T01:30:34;11.53;;;8.30;;
14191;SDS011;7177;48.572;7.838;2023-06-26T01:33:02;9.63;;;7.67;;
14191;SDS011;7177;48.572;7.838;2023-06-26T01:35:29;9.57;;;7.37;;
14191;SDS011;7177;48.572;7.838;2023-06-26T01:38:10;8.97;;;6.97;;
14191;SDS011;7177;48.572;7.838;2023-06-26T01:40:46;8.90;;;7.23;;
14191;SDS011;7177;48.572;7.838;2023-06-26T01:46:04;9.13;;;7.13;;
14191;SDS011;7177;48.572;7.838;2023-06-26T01:48:39;11.67;;;7.97;;
14191;SDS011;7177;48.572;7.838;2023-06-26T01:51:11;8.10;;;6.90;;
14191;SDS011;7177;48.572;7.838;2023-06-26T01:53:41;8.57;;;7.10;;
14191;SDS011;7177;48.572;7.838;2023-06-26T01:56:12;10.27;;;8.07;;
14191;SDS011;7177;48.572;7.838;2023-06-26T01:58:40;8.50;;;7.33;;
14191;SDS011;7177;48.572;7.838;2023-06-26T02:01:08;11.83;;;8.20;;
14191;SDS011;7177;48.572;7.838;2023-06-26T02:03:34;9.77;;;7.77;;
14191;SDS011;7177;48.572;7.838;2023-06-26T02:06:00;7.93;;;6.93;;
14191;SDS011;7177;48.572;7.838;2023-06-26T02:08:25;10.03;;;7.37;;
14191;SDS011;7177;48.572;7.838;2023-06-26T02:10:51;8.70;;;7.63;;
14191;SDS011;7177;48.572;7.838;2023-06-26T02:13:16;9.37;;;7.77;;
14191;SDS011;7177;48.572;7.838;2023-06-26T02:15:42;9.40;;;8.17;;
14191;SDS011;7177;48.572;7.838;2023-06-26T02:18:07;11.97;;;7.93;;
14191;SDS011;7177;48.572;7.838;2023-06-26T02:20:33;11.40;;;8.20;;
14191;SDS011;7177;48.572;7.838;2023-06-26T02:22:58;11.87;;;8.20;;
14191;SDS011;7177;48.572;7.838;2023-06-26T02:25:24;8.83;;;7.73;;
14191;SDS011;7177;48.572;7.838;2023-06-26T02:27:49;8.90;;;7.60;;
14191;SDS011;7177;48.572;7.838;2023-06-26T02:30:15;10.50;;;7.83;;
14191;SDS011;7177;48.572;7.838;2023-06-26T02:32:40;9.90;;;8.10;;
14191;SDS011;7177;48.572;7.838;2023-06-26T02:35:06;12.00;;;8.33;;
14191;SDS011;7177;48.572;7.838;2023-06-26T02:37:32;11.00;;;8.80;;
14191;SDS011;7177;48.572;7.838;2023-06-26T02:39:58;10.03;;;8.17;;
14191;SDS011;7177;48.572;7.838;2023-06-26T02:42:23;11.57;;;8.10;;
14191;SDS011;7177;48.572;7.838;2023-06-26T02:44:48;9.40;;;8.17;;
14191;SDS011;7177;48.572;7.838;2023-06-26T02:47:14;12.57;;;8.30;;
14191;SDS011;7177;48.572;7.838;2023-06-26T02:49:39;9.93;;;8.00;;
14191;SDS011;7177;48.572;7.838;2023-06-26T02:52:05;10.60;;;8.30;;
14191;SDS011;7177;48.572;7.838;2023-06-26T02:54:31;9.80;;;8.07;;
14191;SDS011;7177;48.572;7.838;2023-06-26T02:56:57;12.73;;;8.70;;
14191;SDS011;7177;48.572;7.838;2023-06-26T02:59:24;9.07;;;7.70;;
14191;SDS011;7177;48.572;7.838;2023-06-26T03:01:50;11.07;;;8.13;;
14191;SDS011;7177;48.572;7.838;2023-06-26T03:04:15;9.63;;;7.70;;
14191;SDS011;7177;48.572;7.838;2023-06-26T03:06:42;11.03;;;8.47;;
14191;SDS011;7177;48.572;7.838;2023-06-26T03:09:08;8.97;;;7.60;;
14191;SDS011;7177;48.572;7.838;2023-06-26T03:11:34;9.17;;;7.53;;
14191;SDS011;7177;48.572;7.838;2023-06-26T03:13:59;12.90;;;7.87;;
14191;SDS011;7177;48.572;7.838;2023-06-26T03:16:24;10.53;;;7.93;;
14191;SDS011;7177;48.572;7.838;2023-06-26T03:18:50;10.70;;;8.23;;
14191;SDS011;7177;48.572;7.838;2023-06-26T03:21:16;10.30;;;7.80;;
14191;SDS011;7177;48.572;7.838;2023-06-26T03:23:42;8.97;;;7.93;;
14191;SDS011;7177;48.572;7.838;2023-06-26T03:26:08;10.30;;;7.83;;
14191;SDS011;7177;48.572;7.838;2023-06-26T03:28:33;11.00;;;8.17;;
14191;SDS011;7177;48.572;7.838;2023-06-26T03:30:59;12.17;;;8.13;;
14191;SDS011;7177;48.572;7.838;2023-06-26T03:33:24;12.07;;;7.93;;
14191;SDS011;7177;48.572;7.838;2023-06-26T03:35:50;10.27;;;7.57;;
14191;SDS011;7177;48.572;7.838;2023-06-26T03:38:15;11.57;;;8.67;;
14191;SDS011;7177;48.572;7.838;2023-06-26T03:40:41;12.67;;;8.33;;
14191;SDS011;7177;48.572;7.838;2023-06-26T03:43:06;11.93;;;8.17;;
14191;SDS011;7177;48.572;7.838;2023-06-26T03:45:32;10.33;;;8.17;;
14191;SDS011;7177;48.572;7.838;2023-06-26T03:47:57;14.67;;;8.50;;
14191;SDS011;7177;48.572;7.838;2023-06-26T03:50:23;9.17;;;8.00;;
14191;SDS011;7177;48.572;7.838;2023-06-26T03:52:48;12.07;;;8.67;;
14191;SDS011;7177;48.572;7.838;2023-06-26T03:55:15;12.73;;;8.53;;
14191;SDS011;7177;48.572;7.838;2023-06-26T03:57:41;11.33;;;8.13;;
14191;SDS011;7177;48.572;7.838;2023-06-26T04:00:06;15.27;;;9.17;;
14191;SDS011;7177;48.572;7.838;2023-06-26T04:02:41;13.17;;;8.63;;
14191;SDS011;7177;48.572;7.838;2023-06-26T04:05:07;12.77;;;8.97;;
14191;SDS011;7177;48.572;7.838;2023-06-26T04:07:33;9.17;;;8.03;;
14191;SDS011;7177;48.572;7.838;2023-06-26T04:09:59;14.53;;;8.30;;
14191;SDS011;7177;48.572;7.838;2023-06-26T04:12:25;10.80;;;8.33;;
14191;SDS011;7177;48.572;7.838;2023-06-26T04:14:51;11.93;;;8.87;;
14191;SDS011;7177;48.572;7.838;2023-06-26T04:17:16;11.50;;;8.23;;
14191;SDS011;7177;48.572;7.838;2023-06-26T04:19:42;9.70;;;8.27;;
14191;SDS011;7177;48.572;7.838;2023-06-26T04:22:07;9.90;;;7.80;;
14191;SDS011;7177;48.572;7.838;2023-06-26T04:24:33;9.73;;;7.67;;
14191;SDS011;7177;48.572;7.838;2023-06-26T04:26:58;12.33;;;8.13;;
14191;SDS011;7177;48.572;7.838;2023-06-26T04:29:25;9.97;;;8.00;;
14191;SDS011;7177;48.572;7.838;2023-06-26T04:31:52;13.50;;;8.43;;
14191;SDS011;7177;48.572;7.838;2023-06-26T04:34:22;12.53;;;8.10;;
14191;SDS011;7177;48.572;7.838;2023-06-26T04:36:48;10.80;;;7.60;;
14191;SDS011;7177;48.572;7.838;2023-06-26T04:39:15;10.77;;;8.27;;
14191;SDS011;7177;48.572;7.838;2023-06-26T04:41:41;11.33;;;7.97;;
14191;SDS011;7177;48.572;7.838;2023-06-26T04:44:06;9.20;;;7.80;;
14191;SDS011;7177;48.572;7.838;2023-06-26T04:46:32;11.73;;;7.53;;
14191;SDS011;7177;48.572;7.838;2023-06-26T04:48:57;11.30;;;7.63;;
14191;SDS011;7177;48.572;7.838;2023-06-26T04:51:24;10.93;;;8.00;;
14191;SDS011;7177;48.572;7.838;2023-06-26T04:53:51;8.73;;;7.50;;
14191;SDS011;7177;48.572;7.838;2023-06-26T04:56:17;10.73;;;7.97;;
14191;SDS011;7177;48.572;7.838;2023-06-26T04:58:43;11.33;;;8.03;;
14191;SDS011;7177;48.572;7.838;2023-06-26T05:01:08;12.67;;;8.03;;
14191;SDS011;7177;48.572;7.838;2023-06-26T05:03:35;12.17;;;8.40;;
14191;SDS011;7177;48.572;7.838;2023-06-26T05:06:01;9.80;;;7.90;;
14191;SDS011;7177;48.572;7.838;2023-06-26T05:08:27;11.27;;;7.80;;
14191;SDS011;7177;48.572;7.838;2023-06-26T05:10:52;9.30;;;7.90;;
14191;SDS011;7177;48.572;7.838;2023-06-26T05:13:22;8.97;;;6.70;;
14191;SDS011;7177;48.572;7.838;2023-06-26T05:15:48;10.73;;;8.07;;
14191;SDS011;7177;48.572;7.838;2023-06-26T05:18:14;12.43;;;7.80;;
14191;SDS011;7177;48.572;7.838;2023-06-26T05:20:40;10.00;;;7.93;;
14191;SDS011;7177;48.572;7.838;2023-06-26T05:23:05;10.17;;;7.13;;
14191;SDS011;7177;48.572;7.838;2023-06-26T05:25:31;8.57;;;7.23;;
14191;SDS011;7177;48.572;7.838;2023-06-26T05:27:59;12.40;;;7.53;;
14191;SDS011;7177;48.572;7.838;2023-06-26T05:30:25;11.83;;;6.87;;
14191;SDS011;7177;48.572;7.838;2023-06-26T05:32:51;10.93;;;8.07;;
14191;SDS011;7177;48.572;7.838;2023-06-26T05:35:17;17.33;;;7.10;;
14191;SDS011;7177;48.572;7.838;2023-06-26T05:37:44;12.37;;;7.17;;
14191;SDS011;7177;48.572;7.838;2023-06-26T05:40:11;8.67;;;7.10;;
14191;SDS011;7177;48.572;7.838;2023-06-26T05:42:37;8.43;;;6.97;;
14191;SDS011;7177;48.572;7.838;2023-06-26T05:45:02;8.47;;;7.47;;
14191;SDS011;7177;48.572;7.838;2023-06-26T05:47:28;10.00;;;6.80;;
14191;SDS011;7177;48.572;7.838;2023-06-26T05:49:53;8.50;;;7.20;;
14191;SDS011;7177;48.572;7.838;2023-06-26T05:52:19;10.10;;;6.97;;
14191;SDS011;7177;48.572;7.838;2023-06-26T05:54:45;10.40;;;6.53;;
14191;SDS011;7177;48.572;7.838;2023-06-26T05:57:11;11.40;;;7.20;;
14191;SDS011;7177;48.572;7.838;2023-06-26T05:59:39;8.97;;;6.80;;
14191;SDS011;7177;48.572;7.838;2023-06-26T06:02:06;9.20;;;7.00;;
14191;SDS011;7177;48.572;7.838;2023-06-26T06:04:32;10.23;;;6.77;;
14191;SDS011;7177;48.572;7.838;2023-06-26T06:06:57;11.53;;;6.97;;
14191;SDS011;7177;48.572;7.838;2023-06-26T06:09:22;8.20;;;7.10;;
14191;SDS011;7177;48.572;7.838;2023-06-26T06:11:48;8.23;;;6.57;;
14191;SDS011;7177;48.572;7.838;2023-06-26T06:14:13;11.10;;;7.30;;
14191;SDS011;7177;48.572;7.838;2023-06-26T06:16:39;9.57;;;7.00;;
14191;SDS011;7177;48.572;7.838;2023-06-26T06:19:04;7.83;;;6.63;;
14191;SDS011;7177;48.572;7.838;2023-06-26T06:21:32;7.77;;;6.87;;
14191;SDS011;7177;48.572;7.838;2023-06-26T06:23:58;9.40;;;6.80;;
14191;SDS011;7177;48.572;7.838;2023-06-26T06:26:23;7.00;;;6.13;;
14191;SDS011;7177;48.572;7.838;2023-06-26T06:28:49;7.37;;;6.23;;
14191;SDS011;7177;48.572;7.838;2023-06-26T06:31:14;8.63;;;6.63;;
14191;SDS011;7177;48.572;7.838;2023-06-26T06:33:40;13.73;;;6.90;;
14191;SDS011;7177;48.572;7.838;2023-06-26T06:36:05;7.63;;;6.80;;
14191;SDS011;7177;48.572;7.838;2023-06-26T06:38:31;7.70;;;6.77;;
14191;SDS011;7177;48.572;7.838;2023-06-26T06:40:56;9.93;;;6.60;;
14191;SDS011;7177;48.572;7.838;2023-06-26T06:43:22;9.60;;;6.60;;
14191;SDS011;7177;48.572;7.838;2023-06-26T06:45:48;11.50;;;6.80;;
14191;SDS011;7177;48.572;7.838;2023-06-26T06:48:13;10.57;;;6.40;;
14191;SDS011;7177;48.572;7.838;2023-06-26T06:50:39;12.27;;;6.23;;
14191;SDS011;7177;48.572;7.838;2023-06-26T06:53:04;13.87;;;7.80;;
14191;SDS011;7177;48.572;7.838;2023-06-26T06:55:30;10.70;;;6.90;;
14191;SDS011;7177;48.572;7.838;2023-06-26T06:57:55;10.03;;;6.60;;
14191;SDS011;7177;48.572;7.838;2023-06-26T07:00:21;10.87;;;6.90;;
14191;SDS011;7177;48.572;7.838;2023-06-26T07:02:46;8.57;;;6.30;;
14191;SDS011;7177;48.572;7.838;2023-06-26T07:05:12;13.03;;;6.70;;
14191;SDS011;7177;48.572;7.838;2023-06-26T07:07:38;12.40;;;6.90;;
14191;SDS011;7177;48.572;7.838;2023-06-26T07:10:05;14.73;;;6.63;;
14191;SDS011;7177;48.572;7.838;2023-06-26T07:12:32;7.93;;;6.40;;
14191;SDS011;7177;48.572;7.838;2023-06-26T07:14:59;12.47;;;6.67;;
14191;SDS011;7177;48.572;7.838;2023-06-26T07:17:25;9.03;;;6.13;;
14191;SDS011;7177;48.572;7.838;2023-06-26T07:19:51;8.90;;;6.57;;
14191;SDS011;7177;48.572;7.838;2023-06-26T07:22:17;12.03;;;6.60;;
14191;SDS011;7177;48.572;7.838;2023-06-26T07:24:45;8.83;;;6.33;;
14191;SDS011;7177;48.572;7.838;2023-06-26T07:27:11;9.20;;;6.40;;
14191;SDS011;7177;48.572;7.838;2023-06-26T07:29:37;7.00;;;6.07;;
14191;SDS011;7177;48.572;7.838;2023-06-26T07:32:02;9.77;;;6.47;;
14191;SDS011;7177;48.572;7.838;2023-06-26T07:34:28;7.67;;;5.93;;
14191;SDS011;7177;48.572;7.838;2023-06-26T07:36:53;9.13;;;6.97;;
14191;SDS011;7177;48.572;7.838;2023-06-26T07:39:19;9.27;;;6.43;;
14191;SDS011;7177;48.572;7.838;2023-06-26T07:41:44;11.40;;;6.70;;
14191;SDS011;7177;48.572;7.838;2023-06-26T07:44:10;9.10;;;7.13;;
14191;SDS011;7177;48.572;7.838;2023-06-26T07:46:35;10.93;;;6.67;;
14191;SDS011;7177;48.572;7.838;2023-06-26T07:49:01;9.57;;;6.60;;
14191;SDS011;7177;48.572;7.838;2023-06-26T07:51:26;11.00;;;7.13;;
14191;SDS011;7177;48.572;7.838;2023-06-26T07:53:52;8.77;;;6.60;;
14191;SDS011;7177;48.572;7.838;2023-06-26T07:56:17;8.30;;;7.17;;
14191;SDS011;7177;48.572;7.838;2023-06-26T07:58:43;8.60;;;6.77;;
14191;SDS011;7177;48.572;7.838;2023-06-26T08:01:08;13.67;;;6.97;;
14191;SDS011;7177;48.572;7.838;2023-06-26T08:03:34;10.23;;;6.63;;
14191;SDS011;7177;48.572;7.838;2023-06-26T08:05:59;8.60;;;6.27;;
14191;SDS011;7177;48.572;7.838;2023-06-26T08:08:25;10.70;;;6.67;;
14191;SDS011;7177;48.572;7.838;2023-06-26T08:10:50;9.37;;;6.57;;
14191;SDS011;7177;48.572;7.838;2023-06-26T08:13:16;9.67;;;6.57;;
14191;SDS011;7177;48.572;7.838;2023-06-26T08:15:41;9.37;;;6.73;;
14191;SDS011;7177;48.572;7.838;2023-06-26T08:18:07;7.00;;;5.97;;
14191;SDS011;7177;48.572;7.838;2023-06-26T08:20:32;8.87;;;6.33;;
14191;SDS011;7177;48.572;7.838;2023-06-26T08:23:00;15.93;;;5.50;;
14191;SDS011;7177;48.572;7.838;2023-06-26T08:25:26;10.83;;;5.93;;
14191;SDS011;7177;48.572;7.838;2023-06-26T08:27:51;8.13;;;5.87;;
14191;SDS011;7177;48.572;7.838;2023-06-26T08:30:17;13.63;;;6.40;;
14191;SDS011;7177;48.572;7.838;2023-06-26T08:32:43;7.40;;;5.73;;
14191;SDS011;7177;48.572;7.838;2023-06-26T08:35:08;7.57;;;5.60;;
14191;SDS011;7177;48.572;7.838;2023-06-26T08:37:35;6.60;;;5.83;;
14191;SDS011;7177;48.572;7.838;2023-06-26T08:40:00;6.77;;;5.30;;
14191;SDS011;7177;48.572;7.838;2023-06-26T08:42:26;7.77;;;5.53;;
14191;SDS011;7177;48.572;7.838;2023-06-26T08:44:51;7.90;;;5.60;;
14191;SDS011;7177;48.572;7.838;2023-06-26T08:47:17;16.47;;;6.10;;
14191;SDS011;7177;48.572;7.838;2023-06-26T08:53:17;7.10;;;5.27;;
14191;SDS011;7177;48.572;7.838;2023-06-26T08:55:29;8.67;;;6.27;;
14191;SDS011;7177;48.572;7.838;2023-06-26T08:57:56;9.37;;;6.07;;
14191;SDS011;7177;48.572;7.838;2023-06-26T09:00:23;10.33;;;5.87;;
14191;SDS011;7177;48.572;7.838;2023-06-26T09:02:48;6.70;;;5.67;;
14191;SDS011;7177;48.572;7.838;2023-06-26T09:05:14;6.63;;;5.60;;
14191;SDS011;7177;48.572;7.838;2023-06-26T09:07:39;8.13;;;4.83;;
14191;SDS011;7177;48.572;7.838;2023-06-26T09:10:05;12.17;;;5.00;;
14191;SDS011;7177;48.572;7.838;2023-06-26T09:12:31;8.97;;;5.00;;
14191;SDS011;7177;48.572;7.838;2023-06-26T09:14:58;8.60;;;5.07;;
14191;SDS011;7177;48.572;7.838;2023-06-26T09:17:25;8.07;;;4.53;;
14191;SDS011;7177;48.572;7.838;2023-06-26T09:19:54;6.70;;;4.53;;
14191;SDS011;7177;48.572;7.838;2023-06-26T09:22:20;10.93;;;4.97;;
14191;SDS011;7177;48.572;7.838;2023-06-26T09:24:47;14.87;;;5.17;;
14191;SDS011;7177;48.572;7.838;2023-06-26T09:27:13;6.97;;;4.90;;
14191;SDS011;7177;48.572;7.838;2023-06-26T09:29:39;5.53;;;4.43;;
14191;SDS011;7177;48.572;7.838;2023-06-26T09:32:04;5.77;;;4.60;;
14191;SDS011;7177;48.572;7.838;2023-06-26T09:34:32;10.27;;;5.13;;
14191;SDS011;7177;48.572;7.838;2023-06-26T09:36:58;7.67;;;4.90;;
14191;SDS011;7177;48.572;7.838;2023-06-26T09:39:27;10.27;;;4.97;;
14191;SDS011;7177;48.572;7.838;2023-06-26T09:41:55;5.00;;;4.37;;
14191;SDS011;7177;48.572;7.838;2023-06-26T09:44:22;6.90;;;4.57;;
14191;SDS011;7177;48.572;7.838;2023-06-26T09:46:47;15.70;;;4.87;;
14191;SDS011;7177;48.572;7.838;2023-06-26T09:49:13;5.30;;;4.60;;
14191;SDS011;7177;48.572;7.838;2023-06-26T09:51:39;7.00;;;4.90;;
14191;SDS011;7177;48.572;7.838;2023-06-26T09:54:06;8.10;;;4.53;;
14191;SDS011;7177;48.572;7.838;2023-06-26T09:56:33;6.23;;;4.77;;
14191;SDS011;7177;48.572;7.838;2023-06-26T09:59:00;4.90;;;4.30;;
14191;SDS011;7177;48.572;7.838;2023-06-26T10:01:28;7.70;;;4.93;;
14191;SDS011;7177;48.572;7.838;2023-06-26T10:03:54;5.77;;;4.50;;
14191;SDS011;7177;48.572;7.838;2023-06-26T10:06:24;6.60;;;4.43;;
14191;SDS011;7177;48.572;7.838;2023-06-26T10:08:58;6.37;;;4.33;;
14191;SDS011;7177;48.572;7.838;2023-06-26T10:11:25;6.53;;;4.37;;
14191;SDS011;7177;48.572;7.838;2023-06-26T10:14:05;6.70;;;4.10;;
14191;SDS011;7177;48.572;7.838;2023-06-26T10:16:32;4.37;;;3.83;;
14191;SDS011;7177;48.572;7.838;2023-06-26T10:19:01;6.07;;;4.33;;
14191;SDS011;7177;48.572;7.838;2023-06-26T10:21:29;5.33;;;4.40;;
14191;SDS011;7177;48.572;7.838;2023-06-26T10:23:59;4.33;;;3.70;;
14191;SDS011;7177;48.572;7.838;2023-06-26T10:26:25;5.40;;;4.03;;
14191;SDS011;7177;48.572;7.838;2023-06-26T10:28:53;7.03;;;4.07;;
14191;SDS011;7177;48.572;7.838;2023-06-26T10:31:25;5.13;;;4.20;;
14191;SDS011;7177;48.572;7.838;2023-06-26T10:33:53;21.57;;;4.47;;
14191;SDS011;7177;48.572;7.838;2023-06-26T10:36:20;5.70;;;3.63;;
14191;SDS011;7177;48.572;7.838;2023-06-26T10:38:56;6.37;;;4.00;;
14191;SDS011;7177;48.572;7.838;2023-06-26T10:41:24;4.60;;;3.87;;
14191;SDS011;7177;48.572;7.838;2023-06-26T10:44:12;4.97;;;3.53;;
14191;SDS011;7177;48.572;7.838;2023-06-26T10:46:53;6.10;;;3.67;;
14191;SDS011;7177;48.572;7.838;2023-06-26T10:49:21;5.97;;;3.87;;
14191;SDS011;7177;48.572;7.838;2023-06-26T10:51:50;6.13;;;3.40;;
14191;SDS011;7177;48.572;7.838;2023-06-26T10:54:17;6.43;;;3.50;;
14191;SDS011;7177;48.572;7.838;2023-06-26T10:59:16;4.40;;;3.50;;
14191;SDS011;7177;48.572;7.838;2023-06-26T11:01:44;6.87;;;3.63;;
14191;SDS011;7177;48.572;7.838;2023-06-26T11:04:12;7.60;;;3.17;;
14191;SDS011;7177;48.572;7.838;2023-06-26T11:06:40;4.80;;;3.20;;
14191;SDS011;7177;48.572;7.838;2023-06-26T11:09:07;4.17;;;3.50;;
14191;SDS011;7177;48.572;7.838;2023-06-26T11:14:17;9.73;;;3.40;;
14191;SDS011;7177;48.572;7.838;2023-06-26T11:16:43;6.10;;;3.60;;
14191;SDS011;7177;48.572;7.838;2023-06-26T11:19:09;4.67;;;3.23;;
14191;SDS011;7177;48.572;7.838;2023-06-26T11:21:36;5.93;;;3.33;;
14191;SDS011;7177;48.572;7.838;2023-06-26T11:24:03;3.90;;;3.10;;
14191;SDS011;7177;48.572;7.838;2023-06-26T11:26:38;4.03;;;3.17;;
14191;SDS011;7177;48.572;7.838;2023-06-26T11:29:08;7.13;;;3.30;;
14191;SDS011;7177;48.572;7.838;2023-06-26T11:31:35;3.57;;;2.90;;
14191;SDS011;7177;48.572;7.838;2023-06-26T11:34:03;5.23;;;3.87;;
14191;SDS011;7177;48.572;7.838;2023-06-26T11:36:36;5.20;;;3.40;;
14191;SDS011;7177;48.572;7.838;2023-06-26T11:39:12;6.40;;;3.03;;
14191;SDS011;7177;48.572;7.838;2023-06-26T11:41:38;6.27;;;3.20;;
14191;SDS011;7177;48.572;7.838;2023-06-26T11:44:05;7.27;;;3.50;;
14191;SDS011;7177;48.572;7.838;2023-06-26T11:46:34;5.07;;;3.23;;
14191;SDS011;7177;48.572;7.838;2023-06-26T11:49:02;3.40;;;3.10;;
14191;SDS011;7177;48.572;7.838;2023-06-26T11:51:31;4.03;;;2.70;;
14191;SDS011;7177;48.572;7.838;2023-06-26T11:54:00;6.60;;;3.10;;
14191;SDS011;7177;48.572;7.838;2023-06-26T11:56:27;12.03;;;3.70;;
14191;SDS011;7177;48.572;7.838;2023-06-26T11:59:02;4.27;;;3.50;;
14191;SDS011;7177;48.572;7.838;2023-06-26T12:01:35;7.63;;;3.10;;
14191;SDS011;7177;48.572;7.838;2023-06-26T12:04:04;5.47;;;3.20;;
14191;SDS011;7177;48.572;7.838;2023-06-26T12:06:31;4.10;;;2.90;;
14191;SDS011;7177;48.572;7.838;2023-06-26T12:09:02;4.00;;;3.20;;
14191;SDS011;7177;48.572;7.838;2023-06-26T12:11:31;4.30;;;3.20;;
14191;SDS011;7177;48.572;7.838;2023-06-26T12:13:58;4.73;;;3.47;;
14191;SDS011;7177;48.572;7.838;2023-06-26T12:16:24;4.03;;;3.17;;
14191;SDS011;7177;48.572;7.838;2023-06-26T12:18:50;4.20;;;2.70;;
14191;SDS011;7177;48.572;7.838;2023-06-26T12:24:02;8.10;;;3.37;;
14191;SDS011;7177;48.572;7.838;2023-06-26T12:26:32;4.97;;;2.93;;
14191;SDS011;7177;48.572;7.838;2023-06-26T12:29:04;5.57;;;3.10;;
14191;SDS011;7177;48.572;7.838;2023-06-26T12:31:31;5.37;;;3.10;;
14191;SDS011;7177;48.572;7.838;2023-06-26T12:33:57;4.00;;;2.83;;
14191;SDS011;7177;48.572;7.838;2023-06-26T12:36:23;6.07;;;2.90;;
14191;SDS011;7177;48.572;7.838;2023-06-26T12:38:49;4.57;;;3.00;;
14191;SDS011;7177;48.572;7.838;2023-06-26T12:41:15;3.93;;;2.80;;
14191;SDS011;7177;48.572;7.838;2023-06-26T12:43:41;5.23;;;2.60;;
14191;SDS011;7177;48.572;7.838;2023-06-26T12:46:07;3.00;;;2.70;;
14191;SDS011;7177;48.572;7.838;2023-06-26T12:48:40;8.53;;;3.17;;
14191;SDS011;7177;48.572;7.838;2023-06-26T12:51:15;5.30;;;2.77;;
14191;SDS011;7177;48.572;7.838;2023-06-26T12:53:42;3.00;;;2.70;;
14191;SDS011;7177;48.572;7.838;2023-06-26T12:56:08;5.90;;;3.13;;
14191;SDS011;7177;48.572;7.838;2023-06-26T12:58:35;5.97;;;3.30;;
14191;SDS011;7177;48.572;7.838;2023-06-26T13:01:06;7.80;;;3.33;;
14191;SDS011;7177;48.572;7.838;2023-06-26T13:03:44;4.60;;;3.70;;
14191;SDS011;7177;48.572;7.838;2023-06-26T13:06:10;5.30;;;3.30;;
14191;SDS011;7177;48.572;7.838;2023-06-26T13:08:35;4.53;;;3.13;;
14191;SDS011;7177;48.572;7.838;2023-06-26T13:11:02;6.80;;;3.40;;
14191;SDS011;7177;48.572;7.838;2023-06-26T13:13:28;7.70;;;3.67;;
14191;SDS011;7177;48.572;7.838;2023-06-26T13:15:53;6.27;;;3.40;;
14191;SDS011;7177;48.572;7.838;2023-06-26T13:18:19;5.67;;;3.53;;
14191;SDS011;7177;48.572;7.838;2023-06-26T13:20:44;7.90;;;3.53;;
14191;SDS011;7177;48.572;7.838;2023-06-26T13:23:10;5.73;;;3.57;;
14191;SDS011;7177;48.572;7.838;2023-06-26T13:25:36;6.20;;;3.70;;
14191;SDS011;7177;48.572;7.838;2023-06-26T13:28:02;7.13;;;3.90;;
14191;SDS011;7177;48.572;7.838;2023-06-26T13:30:27;6.43;;;3.87;;
14191;SDS011;7177;48.572;7.838;2023-06-26T13:32:52;5.07;;;3.90;;
14191;SDS011;7177;48.572;7.838;2023-06-26T13:35:18;6.40;;;4.00;;
14191;SDS011;7177;48.572;7.838;2023-06-26T13:37:43;10.77;;;4.43;;
14191;SDS011;7177;48.572;7.838;2023-06-26T13:40:09;5.00;;;4.17;;
14191;SDS011;7177;48.572;7.838;2023-06-26T13:42:35;7.13;;;3.80;;
14191;SDS011;7177;48.572;7.838;2023-06-26T13:45:01;5.47;;;3.97;;
14191;SDS011;7177;48.572;7.838;2023-06-26T13:47:28;9.23;;;4.20;;
14191;SDS011;7177;48.572;7.838;2023-06-26T13:49:54;7.83;;;4.27;;
14191;SDS011;7177;48.572;7.838;2023-06-26T13:52:19;15.20;;;5.20;;
14191;SDS011;7177;48.572;7.838;2023-06-26T13:54:45;5.70;;;4.50;;
14191;SDS011;7177;48.572;7.838;2023-06-26T13:57:10;6.90;;;4.33;;
14191;SDS011;7177;48.572;7.838;2023-06-26T13:59:37;6.17;;;4.13;;
14191;SDS011;7177;48.572;7.838;2023-06-26T14:02:04;8.53;;;4.40;;
14191;SDS011;7177;48.572;7.838;2023-06-26T14:04:31;8.63;;;4.37;;
14191;SDS011;7177;48.572;7.838;2023-06-26T14:06:57;6.10;;;4.93;;
14191;SDS011;7177;48.572;7.838;2023-06-26T14:09:22;11.23;;;4.83;;
14191;SDS011;7177;48.572;7.838;2023-06-26T14:11:48;11.73;;;4.70;;
14191;SDS011;7177;48.572;7.838;2023-06-26T14:14:13;9.63;;;4.57;;
14191;SDS011;7177;48.572;7.838;2023-06-26T14:16:39;12.53;;;5.20;;
14191;SDS011;7177;48.572;7.838;2023-06-26T14:19:05;9.67;;;5.63;;
14191;SDS011;7177;48.572;7.838;2023-06-26T14:21:31;10.20;;;5.40;;
14191;SDS011;7177;48.572;7.838;2023-06-26T14:23:58;9.70;;;5.60;;
14191;SDS011;7177;48.572;7.838;2023-06-26T14:26:23;7.07;;;5.23;;
14191;SDS011;7177;48.572;7.838;2023-06-26T14:28:49;14.67;;;5.17;;
14191;SDS011;7177;48.572;7.838;2023-06-26T14:31:14;8.77;;;5.30;;
14191;SDS011;7177;48.572;7.838;2023-06-26T14:33:40;8.37;;;5.13;;
14191;SDS011;7177;48.572;7.838;2023-06-26T14:36:05;8.03;;;5.27;;
14191;SDS011;7177;48.572;7.838;2023-06-26T14:38:31;9.53;;;5.30;;
14191;SDS011;7177;48.572;7.838;2023-06-26T14:40:56;7.10;;;5.60;;
14191;SDS011;7177;48.572;7.838;2023-06-26T14:43:22;8.17;;;5.50;;
14191;SDS011;7177;48.572;7.838;2023-06-26T14:45:47;8.33;;;5.20;;
14191;SDS011;7177;48.572;7.838;2023-06-26T14:48:13;9.00;;;5.00;;
14191;SDS011;7177;48.572;7.838;2023-06-26T14:50:40;6.33;;;5.03;;
14191;SDS011;7177;48.572;7.838;2023-06-26T14:53:05;7.30;;;4.90;;
14191;SDS011;7177;48.572;7.838;2023-06-26T14:55:31;15.13;;;4.83;;
14191;SDS011;7177;48.572;7.838;2023-06-26T14:57:56;7.80;;;4.70;;
14191;SDS011;7177;48.572;7.838;2023-06-26T15:00:22;6.70;;;4.53;;
14191;SDS011;7177;48.572;7.838;2023-06-26T15:02:48;8.03;;;4.03;;
14191;SDS011;7177;48.572;7.838;2023-06-26T15:05:14;6.10;;;3.93;;
14191;SDS011;7177;48.572;7.838;2023-06-26T15:07:39;5.30;;;3.67;;
14191;SDS011;7177;48.572;7.838;2023-06-26T15:10:05;6.47;;;4.10;;
14191;SDS011;7177;48.572;7.838;2023-06-26T15:12:31;3.73;;;3.20;;